FIN78C EFHK-LGRP
Flight info
| Callsign | FIN78C |
|---|---|
| Flight time | N/A |
| Altitude | 34000 |
| Route | KOIVU DCT LARTI DCT NAVOT DCT LUTAL DCT BERIL/N0446F350 DCT TOXAR/N0447F360 DCT PODAN DCT KEKED/N0441F350 DCT NARKA DCT ORA DCT ADUKU DCT BAVMA DCT EVRIK DCT OLMIP DCT EKNAB DCT SODGO DCT OVDOT DCT NIKTI DCT MES UN139 LURUS UL995 CODIC |
| Aircraft | A320/M-SDE1E2E3FGIJ1M1RWXYZ/LB1 |
Departure
| Time | 2026-05-07 10:01 |
|---|---|
| Airport | Helsinki Vantaa Airport (EFHK) |
Arrival
| Time | N/A |
|---|---|
| Airport | Rhodes International Airport "Diagoras" (LGRP) |
| Time | Latitude | Longitude | Altitude | Speed | Heading |
|---|---|---|---|---|---|
| 2026-05-07 09:28 | 60.31975 | 24.96895 | 167 ft | 0 kts | 217° |
| 2026-05-07 09:51 | 60.31979 | 24.96901 | 166 ft | 3 kts | 218° |
| 2026-05-07 09:52 | 60.31998 | 24.96938 | 166 ft | 4 kts | 237° |
| 2026-05-07 09:52 | 60.32007 | 24.96984 | 166 ft | 4 kts | 280° |
| 2026-05-07 09:52 | 60.31998 | 24.97016 | 166 ft | 1 kts | 333° |
| 2026-05-07 09:56 | 60.32023 | 24.96990 | 166 ft | 7 kts | 333° |
| 2026-05-07 09:56 | 60.32081 | 24.96929 | 166 ft | 12 kts | 331° |
| 2026-05-07 09:56 | 60.32168 | 24.96825 | 166 ft | 17 kts | 329° |
| 2026-05-07 09:56 | 60.32283 | 24.96692 | 167 ft | 19 kts | 330° |
| 2026-05-07 09:57 | 60.32390 | 24.96567 | 174 ft | 16 kts | 330° |
| 2026-05-07 09:57 | 60.32505 | 24.96433 | 174 ft | 22 kts | 330° |
| 2026-05-07 09:57 | 60.32651 | 24.96262 | 172 ft | 26 kts | 329° |
| 2026-05-07 09:57 | 60.32811 | 24.96076 | 173 ft | 26 kts | 330° |
| 2026-05-07 09:58 | 60.32966 | 24.95895 | 178 ft | 25 kts | 330° |
| 2026-05-07 09:58 | 60.33102 | 24.95714 | 180 ft | 23 kts | 317° |
| 2026-05-07 09:58 | 60.33193 | 24.95542 | 182 ft | 9 kts | 312° |
| 2026-05-07 09:58 | 60.33209 | 24.95422 | 182 ft | 11 kts | 258° |
| 2026-05-07 09:59 | 60.33149 | 24.95261 | 178 ft | 16 kts | 228° |
| 2026-05-07 09:59 | 60.33108 | 24.95058 | 178 ft | 16 kts | 266° |
| 2026-05-07 09:59 | 60.33113 | 24.94804 | 180 ft | 18 kts | 273° |
| 2026-05-07 09:59 | 60.33119 | 24.94556 | 188 ft | 16 kts | 271° |
| 2026-05-07 10:00 | 60.33099 | 24.94357 | 196 ft | 14 kts | 234° |
| 2026-05-07 10:00 | 60.33074 | 24.94301 | 194 ft | 0 kts | 228° |
| 2026-05-07 10:00 | 60.33013 | 24.94165 | 188 ft | 44 kts | 227° |
| 2026-05-07 10:00 | 60.32640 | 24.93345 | 181 ft | 110 kts | 227° |
| 2026-05-07 10:01 | 60.31991 | 24.91916 | 153 ft | 164 kts | 227° |
| 2026-05-07 10:01 | 60.31169 | 24.90131 | 541 ft | 175 kts | 227° |
| 2026-05-07 10:01 | 60.30375 | 24.88238 | 1208 ft | 179 kts | 234° |
| 2026-05-07 10:01 | 60.29656 | 24.86116 | 1691 ft | 192 kts | 235° |
| 2026-05-07 10:02 | 60.28883 | 24.83736 | 1993 ft | 214 kts | 236° |
| 2026-05-07 10:02 | 60.28022 | 24.81072 | 2334 ft | 238 kts | 236° |
| 2026-05-07 10:02 | 60.27091 | 24.78206 | 2834 ft | 254 kts | 237° |
| 2026-05-07 10:02 | 60.26308 | 24.74968 | 3606 ft | 260 kts | 247° |
| 2026-05-07 10:03 | 60.25430 | 24.71718 | 4424 ft | 264 kts | 229° |
| 2026-05-07 10:03 | 60.23978 | 24.69469 | 5201 ft | 267 kts | 202° |
| 2026-05-07 10:03 | 60.22184 | 24.68709 | 5953 ft | 271 kts | 181° |
| 2026-05-07 10:03 | 60.20288 | 24.68598 | 6715 ft | 275 kts | 180° |
| 2026-05-07 10:04 | 60.18364 | 24.68503 | 7457 ft | 278 kts | 181° |
| 2026-05-07 10:04 | 60.16421 | 24.68408 | 8241 ft | 280 kts | 181° |
| 2026-05-07 10:04 | 60.14462 | 24.68304 | 9002 ft | 283 kts | 182° |
| 2026-05-07 10:04 | 60.12488 | 24.68191 | 9792 ft | 285 kts | 183° |
| 2026-05-07 10:05 | 60.10490 | 24.68069 | 10363 ft | 295 kts | 183° |
| 2026-05-07 10:05 | 60.08360 | 24.67938 | 10519 ft | 318 kts | 183° |
| 2026-05-07 10:05 | 60.06078 | 24.67801 | 10743 ft | 335 kts | 182° |
| 2026-05-07 10:05 | 60.03724 | 24.67662 | 11315 ft | 341 kts | 183° |
| 2026-05-07 10:06 | 60.01340 | 24.67522 | 11973 ft | 344 kts | 183° |
| 2026-05-07 10:06 | 59.98937 | 24.67384 | 12644 ft | 347 kts | 184° |
| 2026-05-07 10:06 | 59.96519 | 24.67247 | 13311 ft | 349 kts | 184° |
| 2026-05-07 10:06 | 59.94080 | 24.67110 | 13958 ft | 352 kts | 184° |
| 2026-05-07 10:07 | 59.91623 | 24.66964 | 14542 ft | 354 kts | 184° |
| 2026-05-07 10:07 | 59.89153 | 24.66814 | 15111 ft | 356 kts | 185° |
| 2026-05-07 10:07 | 59.86664 | 24.66660 | 15678 ft | 359 kts | 185° |
| 2026-05-07 10:07 | 59.84176 | 24.66313 | 16268 ft | 358 kts | 192° |
| 2026-05-07 10:08 | 59.81750 | 24.65245 | 16853 ft | 358 kts | 197° |
| 2026-05-07 10:08 | 59.79328 | 24.64089 | 17459 ft | 359 kts | 197° |
| 2026-05-07 10:08 | 59.76895 | 24.62934 | 18061 ft | 360 kts | 197° |
| 2026-05-07 10:08 | 59.74457 | 24.61780 | 18618 ft | 361 kts | 197° |
| 2026-05-07 10:09 | 59.72004 | 24.60629 | 19133 ft | 363 kts | 197° |
| 2026-05-07 10:09 | 59.69546 | 24.59484 | 19649 ft | 364 kts | 197° |
| 2026-05-07 10:09 | 59.67109 | 24.58348 | 20169 ft | 365 kts | 198° |
| 2026-05-07 10:09 | 59.64644 | 24.57159 | 20692 ft | 366 kts | 199° |
| 2026-05-07 10:10 | 59.62176 | 24.55894 | 21208 ft | 366 kts | 199° |
| 2026-05-07 10:10 | 59.59712 | 24.54589 | 21673 ft | 368 kts | 200° |
| 2026-05-07 10:10 | 59.57232 | 24.53269 | 22143 ft | 370 kts | 200° |
| 2026-05-07 10:10 | 59.54745 | 24.51947 | 22617 ft | 371 kts | 200° |
| 2026-05-07 10:11 | 59.52242 | 24.50631 | 23088 ft | 373 kts | 200° |
| 2026-05-07 10:11 | 59.49731 | 24.49322 | 23544 ft | 374 kts | 200° |
| 2026-05-07 10:11 | 59.47205 | 24.48015 | 23923 ft | 376 kts | 200° |
| 2026-05-07 10:11 | 59.44670 | 24.46707 | 24285 ft | 377 kts | 200° |
| 2026-05-07 10:12 | 59.42983 | 24.45840 | 24513 ft | 379 kts | 200° |
| 2026-05-07 10:12 | 59.40432 | 24.44534 | 24852 ft | 380 kts | 200° |
| 2026-05-07 10:12 | 59.37864 | 24.43223 | 25176 ft | 382 kts | 200° |
| 2026-05-07 10:12 | 59.35290 | 24.41906 | 25494 ft | 384 kts | 200° |
| 2026-05-07 10:13 | 59.32687 | 24.40665 | 25816 ft | 386 kts | 198° |
| 2026-05-07 10:13 | 59.30043 | 24.39614 | 26127 ft | 389 kts | 196° |
| 2026-05-07 10:13 | 59.27367 | 24.38684 | 26437 ft | 391 kts | 195° |
| 2026-05-07 10:13 | 59.24675 | 24.37801 | 26741 ft | 393 kts | 195° |
| 2026-05-07 10:14 | 59.21971 | 24.36916 | 27032 ft | 395 kts | 195° |
| 2026-05-07 10:14 | 59.19261 | 24.36004 | 27325 ft | 396 kts | 195° |
| 2026-05-07 10:14 | 59.16539 | 24.35060 | 27620 ft | 397 kts | 195° |
| 2026-05-07 10:14 | 59.13815 | 24.34093 | 27904 ft | 399 kts | 196° |
| 2026-05-07 10:15 | 59.11082 | 24.33109 | 28182 ft | 400 kts | 196° |
| 2026-05-07 10:15 | 59.08339 | 24.32117 | 28457 ft | 402 kts | 196° |
| 2026-05-07 10:15 | 59.05580 | 24.31124 | 28609 ft | 405 kts | 195° |
| 2026-05-07 10:15 | 59.02794 | 24.30130 | 28765 ft | 409 kts | 195° |
| 2026-05-07 10:16 | 58.99993 | 24.29136 | 28996 ft | 410 kts | 195° |
| 2026-05-07 10:16 | 58.97175 | 24.28144 | 29237 ft | 412 kts | 195° |
| 2026-05-07 10:16 | 58.94350 | 24.27156 | 29467 ft | 414 kts | 195° |
| 2026-05-07 10:16 | 58.91516 | 24.26165 | 29692 ft | 415 kts | 195° |
| 2026-05-07 10:17 | 58.88668 | 24.25166 | 29920 ft | 416 kts | 195° |
| 2026-05-07 10:17 | 58.85816 | 24.24164 | 30129 ft | 417 kts | 195° |
| 2026-05-07 10:17 | 58.82993 | 24.23174 | 30319 ft | 418 kts | 195° |
| 2026-05-07 10:17 | 58.80132 | 24.22180 | 30572 ft | 417 kts | 195° |
| 2026-05-07 10:18 | 58.77282 | 24.21195 | 30849 ft | 416 kts | 195° |
| 2026-05-07 10:18 | 58.74439 | 24.20210 | 31093 ft | 414 kts | 195° |
| 2026-05-07 10:18 | 58.71613 | 24.19226 | 31405 ft | 412 kts | 196° |
| 2026-05-07 10:18 | 58.68802 | 24.18246 | 31691 ft | 410 kts | 196° |
| 2026-05-07 10:19 | 58.65997 | 24.17270 | 31962 ft | 409 kts | 196° |
| 2026-05-07 10:19 | 58.63202 | 24.16300 | 32224 ft | 408 kts | 196° |
| 2026-05-07 10:19 | 58.60419 | 24.15331 | 32487 ft | 407 kts | 196° |
| 2026-05-07 10:19 | 58.57636 | 24.14364 | 32722 ft | 405 kts | 196° |
| 2026-05-07 10:20 | 58.54865 | 24.13407 | 32997 ft | 404 kts | 196° |
| 2026-05-07 10:20 | 58.52096 | 24.12459 | 33251 ft | 404 kts | 196° |
| 2026-05-07 10:20 | 58.49338 | 24.11512 | 33501 ft | 403 kts | 196° |
| 2026-05-07 10:20 | 58.46580 | 24.10566 | 33712 ft | 402 kts | 197° |
| 2026-05-07 10:21 | 58.43836 | 24.09627 | 33958 ft | 400 kts | 197° |
| 2026-05-07 10:21 | 58.38398 | 24.07778 | 34019 ft | 394 kts | 197° |
| 2026-05-07 10:22 | 58.33011 | 24.05936 | 34016 ft | 393 kts | 197° |
| 2026-05-07 10:22 | 58.27629 | 24.04102 | 34015 ft | 393 kts | 197° |
| 2026-05-07 10:23 | 58.22243 | 24.02282 | 34012 ft | 393 kts | 197° |
| 2026-05-07 10:23 | 58.16861 | 24.00473 | 33993 ft | 393 kts | 197° |
| 2026-05-07 10:24 | 58.11483 | 23.98665 | 34008 ft | 392 kts | 197° |
| 2026-05-07 10:24 | 58.06112 | 23.96860 | 34021 ft | 392 kts | 197° |
| 2026-05-07 10:25 | 58.00754 | 23.95067 | 33984 ft | 391 kts | 197° |
| 2026-05-07 10:25 | 57.95404 | 23.93287 | 33998 ft | 390 kts | 197° |
| 2026-05-07 10:26 | 57.90068 | 23.91518 | 33974 ft | 389 kts | 197° |
| 2026-05-07 10:26 | 57.84770 | 23.89763 | 33978 ft | 389 kts | 197° |
| 2026-05-07 10:27 | 57.79438 | 23.88009 | 33991 ft | 389 kts | 197° |
| 2026-05-07 10:27 | 57.74105 | 23.86251 | 33994 ft | 389 kts | 197° |
| 2026-05-07 10:28 | 57.68773 | 23.84493 | 33999 ft | 389 kts | 197° |
| 2026-05-07 10:28 | 57.63439 | 23.82743 | 33984 ft | 389 kts | 196° |
| 2026-05-07 10:29 | 57.58105 | 23.81010 | 33972 ft | 389 kts | 196° |
| 2026-05-07 10:29 | 57.52774 | 23.79283 | 33979 ft | 389 kts | 196° |
| 2026-05-07 10:30 | 57.44785 | 23.76703 | 33987 ft | 388 kts | 196° |
| 2026-05-07 10:30 | 57.39462 | 23.74991 | 33988 ft | 388 kts | 196° |
| 2026-05-07 10:31 | 57.34147 | 23.73282 | 33950 ft | 388 kts | 195° |
| 2026-05-07 10:31 | 57.28831 | 23.71568 | 33958 ft | 388 kts | 195° |
| 2026-05-07 10:32 | 57.23520 | 23.69860 | 33958 ft | 388 kts | 195° |
| 2026-05-07 10:32 | 57.18205 | 23.68156 | 33966 ft | 388 kts | 195° |
| 2026-05-07 10:33 | 57.12896 | 23.66471 | 33968 ft | 388 kts | 195° |
| 2026-05-07 10:33 | 57.07575 | 23.64793 | 33965 ft | 388 kts | 195° |
| 2026-05-07 10:34 | 57.02261 | 23.63112 | 33951 ft | 388 kts | 195° |
| 2026-05-07 10:34 | 56.96942 | 23.61428 | 33951 ft | 388 kts | 195° |
| 2026-05-07 10:35 | 56.91657 | 23.59767 | 33956 ft | 388 kts | 195° |
| 2026-05-07 10:35 | 56.86331 | 23.58100 | 33956 ft | 388 kts | 195° |
| 2026-05-07 10:36 | 56.81006 | 23.56426 | 33959 ft | 388 kts | 195° |
| 2026-05-07 10:36 | 56.75681 | 23.54764 | 33927 ft | 389 kts | 195° |
| 2026-05-07 10:37 | 56.70326 | 23.53105 | 33927 ft | 391 kts | 195° |
| 2026-05-07 10:37 | 56.64951 | 23.51439 | 33930 ft | 392 kts | 195° |
| 2026-05-07 10:38 | 56.59563 | 23.49768 | 33935 ft | 393 kts | 195° |
| 2026-05-07 10:38 | 56.54161 | 23.48104 | 33936 ft | 394 kts | 195° |
| 2026-05-07 10:39 | 56.48756 | 23.46445 | 33937 ft | 394 kts | 195° |
| 2026-05-07 10:39 | 56.43346 | 23.44783 | 33935 ft | 395 kts | 195° |
| 2026-05-07 10:40 | 56.40626 | 23.43946 | 34047 ft | 397 kts | 195° |
| 2026-05-07 10:40 | 56.37898 | 23.43113 | 34210 ft | 398 kts | 195° |
| 2026-05-07 10:40 | 56.35164 | 23.42294 | 34375 ft | 399 kts | 194° |
| 2026-05-07 10:40 | 56.32420 | 23.41541 | 34528 ft | 400 kts | 194° |
| 2026-05-07 10:41 | 56.29660 | 23.40832 | 34686 ft | 401 kts | 193° |
| 2026-05-07 10:41 | 56.26898 | 23.40143 | 34853 ft | 401 kts | 193° |
| 2026-05-07 10:41 | 56.21389 | 23.38768 | 34941 ft | 403 kts | 193° |
| 2026-05-07 10:42 | 56.15842 | 23.37359 | 34944 ft | 403 kts | 194° |
| 2026-05-07 10:42 | 56.10292 | 23.35937 | 34944 ft | 403 kts | 194° |
| 2026-05-07 10:43 | 56.04745 | 23.34511 | 34942 ft | 402 kts | 194° |
| 2026-05-07 10:43 | 55.99202 | 23.33092 | 34947 ft | 402 kts | 194° |
| 2026-05-07 10:44 | 55.93660 | 23.31684 | 34938 ft | 402 kts | 194° |
| 2026-05-07 10:44 | 55.92083 | 23.31286 | 34963 ft | 402 kts | 194° |
| 2026-05-07 10:45 | 55.86551 | 23.29881 | 34961 ft | 401 kts | 194° |
| 2026-05-07 10:45 | 55.81021 | 23.28472 | 34955 ft | 401 kts | 194° |
| 2026-05-07 10:46 | 55.75498 | 23.27080 | 34957 ft | 401 kts | 194° |
| 2026-05-07 10:46 | 55.69975 | 23.25690 | 34920 ft | 401 kts | 194° |
| 2026-05-07 10:47 | 55.64449 | 23.24307 | 34932 ft | 400 kts | 194° |
| 2026-05-07 10:47 | 55.58938 | 23.22940 | 34933 ft | 400 kts | 194° |
| 2026-05-07 10:48 | 55.53426 | 23.21575 | 34934 ft | 400 kts | 194° |
| 2026-05-07 10:48 | 55.47920 | 23.20214 | 34934 ft | 400 kts | 194° |
| 2026-05-07 10:49 | 55.42451 | 23.18853 | 34920 ft | 399 kts | 194° |
| 2026-05-07 10:49 | 55.36955 | 23.17487 | 34932 ft | 399 kts | 194° |
| 2026-05-07 10:50 | 55.31459 | 23.16126 | 34931 ft | 399 kts | 194° |
| 2026-05-07 10:50 | 55.25968 | 23.14781 | 34932 ft | 398 kts | 193° |
| 2026-05-07 10:51 | 55.20474 | 23.13443 | 34932 ft | 398 kts | 193° |
| 2026-05-07 10:51 | 55.14989 | 23.12095 | 34888 ft | 398 kts | 194° |
| 2026-05-07 10:52 | 55.09502 | 23.10743 | 34901 ft | 399 kts | 194° |
| 2026-05-07 10:52 | 55.04003 | 23.09411 | 34909 ft | 399 kts | 193° |
| 2026-05-07 10:53 | 54.98501 | 23.08091 | 34912 ft | 399 kts | 193° |
| 2026-05-07 10:53 | 54.92999 | 23.06764 | 34914 ft | 399 kts | 193° |
| 2026-05-07 10:54 | 54.87495 | 23.05437 | 34907 ft | 399 kts | 193° |
| 2026-05-07 10:54 | 54.81986 | 23.04117 | 34911 ft | 400 kts | 193° |
| 2026-05-07 10:55 | 54.76475 | 23.02799 | 34916 ft | 400 kts | 193° |
| 2026-05-07 10:55 | 54.70959 | 23.01475 | 34921 ft | 400 kts | 193° |
| 2026-05-07 10:56 | 54.65447 | 23.00156 | 34923 ft | 400 kts | 193° |
| 2026-05-07 10:56 | 54.59926 | 22.98840 | 34909 ft | 400 kts | 193° |
| 2026-05-07 10:57 | 54.54413 | 22.97534 | 34912 ft | 400 kts | 193° |
| 2026-05-07 10:57 | 54.48894 | 22.96225 | 34914 ft | 400 kts | 193° |
| 2026-05-07 10:58 | 54.43373 | 22.94924 | 34917 ft | 400 kts | 193° |
| 2026-05-07 10:58 | 54.37855 | 22.93626 | 34916 ft | 400 kts | 193° |
| 2026-05-07 10:59 | 54.32335 | 22.92332 | 34899 ft | 400 kts | 193° |
| 2026-05-07 10:59 | 54.26816 | 22.91042 | 34868 ft | 401 kts | 193° |
| 2026-05-07 11:00 | 54.21323 | 22.89762 | 34879 ft | 401 kts | 193° |
| 2026-05-07 11:00 | 54.20387 | 22.89544 | 34879 ft | 401 kts | 193° |
| 2026-05-07 11:02 | 54.17241 | 22.89133 | 34878 ft | 404 kts | 190° |
| 2026-05-07 11:02 | 54.11695 | 22.87882 | 34887 ft | 401 kts | 194° |
| 2026-05-07 11:03 | 54.06187 | 22.86332 | 34876 ft | 401 kts | 194° |
| 2026-05-07 11:03 | 54.00656 | 22.84935 | 34884 ft | 402 kts | 192° |
| 2026-05-07 11:04 | 53.95145 | 22.83683 | 34888 ft | 403 kts | 192° |
| 2026-05-07 11:04 | 53.89586 | 22.82430 | 34885 ft | 403 kts | 192° |
| 2026-05-07 11:05 | 53.84029 | 22.81155 | 34892 ft | 403 kts | 192° |
| 2026-05-07 11:05 | 53.78465 | 22.79890 | 34897 ft | 403 kts | 192° |
| 2026-05-07 11:06 | 53.72902 | 22.78626 | 34895 ft | 403 kts | 192° |
| 2026-05-07 11:06 | 53.67346 | 22.77356 | 34896 ft | 403 kts | 192° |
| 2026-05-07 11:07 | 53.61787 | 22.76095 | 34901 ft | 403 kts | 192° |
| 2026-05-07 11:07 | 53.56227 | 22.74840 | 34878 ft | 403 kts | 192° |
| 2026-05-07 11:08 | 53.50676 | 22.73595 | 34886 ft | 403 kts | 192° |
| 2026-05-07 11:08 | 53.45119 | 22.72346 | 34891 ft | 403 kts | 192° |
| 2026-05-07 11:09 | 53.39565 | 22.71104 | 34856 ft | 403 kts | 192° |
| 2026-05-07 11:09 | 53.34007 | 22.69858 | 34862 ft | 403 kts | 192° |
| 2026-05-07 11:10 | 53.28439 | 22.68612 | 34869 ft | 404 kts | 192° |
| 2026-05-07 11:10 | 53.22863 | 22.67373 | 34864 ft | 404 kts | 192° |
| 2026-05-07 11:11 | 53.17324 | 22.66144 | 34867 ft | 404 kts | 192° |
| 2026-05-07 11:11 | 53.11712 | 22.64904 | 34874 ft | 404 kts | 192° |
| 2026-05-07 11:12 | 53.06172 | 22.63686 | 34872 ft | 404 kts | 192° |
| 2026-05-07 11:12 | 53.00599 | 22.62453 | 34882 ft | 404 kts | 192° |
| 2026-05-07 11:13 | 52.95020 | 22.61225 | 34891 ft | 404 kts | 192° |
| 2026-05-07 11:13 | 52.89448 | 22.60000 | 34882 ft | 404 kts | 192° |
| 2026-05-07 11:14 | 52.83861 | 22.58774 | 35077 ft | 406 kts | 192° |
| 2026-05-07 11:14 | 52.81063 | 22.58161 | 35222 ft | 406 kts | 191° |
| 2026-05-07 11:14 | 52.78259 | 22.57550 | 35382 ft | 406 kts | 191° |
| 2026-05-07 11:15 | 52.76072 | 22.57076 | 35502 ft | 407 kts | 191° |
| 2026-05-07 11:15 | 52.73264 | 22.56471 | 35649 ft | 407 kts | 191° |
| 2026-05-07 11:15 | 52.70455 | 22.55863 | 35810 ft | 407 kts | 191° |
| 2026-05-07 11:16 | 52.64833 | 22.54645 | 35881 ft | 408 kts | 191° |
| 2026-05-07 11:16 | 52.59241 | 22.53127 | 35886 ft | 406 kts | 196° |
| 2026-05-07 11:17 | 52.53769 | 22.51109 | 35861 ft | 405 kts | 196° |
| 2026-05-07 11:17 | 52.48253 | 22.49081 | 35884 ft | 407 kts | 196° |
| 2026-05-07 11:18 | 52.42729 | 22.47061 | 35883 ft | 407 kts | 196° |
| 2026-05-07 11:18 | 52.37207 | 22.45043 | 35885 ft | 407 kts | 196° |
| 2026-05-07 11:19 | 52.31681 | 22.43034 | 35874 ft | 407 kts | 195° |
| 2026-05-07 11:19 | 52.26166 | 22.41025 | 35882 ft | 406 kts | 195° |
| 2026-05-07 11:20 | 52.20653 | 22.39024 | 35884 ft | 406 kts | 195° |
| 2026-05-07 11:20 | 52.15142 | 22.37034 | 35873 ft | 405 kts | 195° |
| 2026-05-07 11:21 | 52.09636 | 22.35050 | 35877 ft | 406 kts | 195° |
| 2026-05-07 11:21 | 52.04128 | 22.33057 | 35888 ft | 405 kts | 195° |
| 2026-05-07 11:22 | 51.98622 | 22.31083 | 35891 ft | 405 kts | 195° |
| 2026-05-07 11:22 | 51.93118 | 22.29124 | 35889 ft | 405 kts | 195° |
| 2026-05-07 11:23 | 51.87658 | 22.27173 | 35893 ft | 404 kts | 195° |